createdAt,value
2022-10-09T00:01:54.889Z,10.09
2022-10-09T00:03:54.811Z,10.04
2022-10-09T00:05:54.795Z,10
2022-10-09T00:07:54.849Z,9.99
2022-10-09T00:09:54.798Z,9.95
2022-10-09T00:11:54.818Z,10
2022-10-09T00:14:41.064Z,9.95
2022-10-09T00:16:41.178Z,9.96
2022-10-09T00:18:41.074Z,9.89
2022-10-09T00:20:41.059Z,9.89
2022-10-09T00:22:41.040Z,9.94
2022-10-09T00:24:41.048Z,9.88
2022-10-09T00:26:41.050Z,9.85
2022-10-09T00:30:27.992Z,9.8
2022-10-09T00:32:27.897Z,9.8
2022-10-09T00:34:27.900Z,9.58
2022-10-09T00:36:27.857Z,9.66
2022-10-09T00:38:27.863Z,9.7
2022-10-09T00:40:27.872Z,9.68
2022-10-09T00:42:27.871Z,9.62
2022-10-09T00:45:10.144Z,9.58
2022-10-09T00:47:10.201Z,9.62
2022-10-09T00:49:10.158Z,9.61
2022-10-09T00:51:10.151Z,9.58
2022-10-09T00:53:10.150Z,9.48
2022-10-09T00:55:10.182Z,9.41
2022-10-09T00:57:10.122Z,9.25
2022-10-09T01:00:44.391Z,9.3
2022-10-09T01:02:44.422Z,9.4
2022-10-09T01:04:44.413Z,9.31
2022-10-09T01:06:44.422Z,9.22
2022-10-09T01:08:44.374Z,9.17
2022-10-09T01:10:44.422Z,9.14
2022-10-09T01:12:44.371Z,9.24
2022-10-09T01:15:42.880Z,9.29
2022-10-09T01:17:42.786Z,9.32
2022-10-09T01:19:42.826Z,9.33
2022-10-09T01:21:42.845Z,9.28
2022-10-09T01:23:42.780Z,9.29
2022-10-09T01:25:42.826Z,9.32
2022-10-09T01:27:42.769Z,9.24
2022-10-09T01:30:32.992Z,9.14
2022-10-09T01:32:32.940Z,9.2
2022-10-09T01:34:32.944Z,9.2
2022-10-09T01:36:32.953Z,9.21
2022-10-09T01:38:33.008Z,9.17
2022-10-09T01:40:32.940Z,9.06
2022-10-09T01:42:32.934Z,9.09
2022-10-09T01:46:07.492Z,9.04
2022-10-09T01:48:07.471Z,9.07
2022-10-09T01:50:07.438Z,9.11
2022-10-09T01:52:07.443Z,9.08
2022-10-09T01:54:07.465Z,9.09
2022-10-09T01:56:07.418Z,9.07
2022-10-09T01:58:07.443Z,9.08
2022-10-09T02:00:40.054Z,9.08
2022-10-09T02:02:40.138Z,9.08
2022-10-09T02:04:40.046Z,9.09
2022-10-09T02:06:40.057Z,9.09
2022-10-09T02:08:40.091Z,9.07
2022-10-09T02:10:40.060Z,9.01
2022-10-09T02:12:40.051Z,9
2022-10-09T02:14:40.034Z,8.97
2022-10-09T02:16:36.263Z,8.87
2022-10-09T02:18:31.627Z,8.87
2022-10-09T02:20:31.665Z,8.88
2022-10-09T02:22:31.624Z,8.87
2022-10-09T02:24:31.657Z,8.83
2022-10-09T02:26:31.648Z,8.84
2022-10-09T02:28:31.666Z,8.77
2022-10-09T02:31:29.305Z,8.88
2022-10-09T02:33:29.124Z,8.88
2022-10-09T02:35:29.149Z,8.8
2022-10-09T02:37:29.151Z,8.79
2022-10-09T02:39:29.138Z,8.87
2022-10-09T02:41:29.121Z,8.86
2022-10-09T02:43:29.148Z,8.83
2022-10-09T02:46:11.208Z,8.87
2022-10-09T02:48:11.129Z,8.86
2022-10-09T02:50:11.138Z,8.74
2022-10-09T02:52:11.184Z,8.75
2022-10-09T02:54:11.172Z,8.7
2022-10-09T02:56:11.131Z,8.81
2022-10-09T02:58:11.140Z,8.84
2022-10-09T03:00:11.152Z,8.76
2022-10-09T03:01:39.760Z,8.63
2022-10-09T03:03:39.599Z,8.65
2022-10-09T03:05:39.550Z,8.63
2022-10-09T03:07:39.583Z,8.64
2022-10-09T03:09:39.571Z,8.59
2022-10-09T03:11:39.570Z,8.58
2022-10-09T03:13:39.559Z,8.55
2022-10-09T03:17:21.293Z,8.52
2022-10-09T03:19:21.253Z,8.53
2022-10-09T03:21:21.258Z,8.54
2022-10-09T03:23:21.251Z,8.44
2022-10-09T03:25:21.244Z,8.37
2022-10-09T03:27:21.249Z,8.38
2022-10-09T03:29:21.245Z,8.43
2022-10-09T03:31:52.672Z,8.33
2022-10-09T03:33:49.870Z,8.38
2022-10-09T03:35:49.895Z,8.12
2022-10-09T03:37:49.842Z,8.36
2022-10-09T03:39:49.912Z,8.39
2022-10-09T03:41:49.833Z,8.28
2022-10-09T03:43:49.837Z,8.22
2022-10-09T03:47:37.934Z,8.31
2022-10-09T03:49:37.962Z,8.29
2022-10-09T03:51:37.937Z,8.29
2022-10-09T03:53:37.883Z,8.27
2022-10-09T03:55:37.906Z,8.34
2022-10-09T03:57:37.920Z,8.41
2022-10-09T03:59:37.949Z,8.3
2022-10-09T04:02:19.127Z,8.31
2022-10-09T04:04:19.141Z,8.28
2022-10-09T04:06:19.156Z,8.3
2022-10-09T04:08:19.063Z,8.19
2022-10-09T04:10:19.110Z,8.2
2022-10-09T04:12:19.082Z,8.23
2022-10-09T04:14:19.101Z,8.21
2022-10-09T04:18:00.655Z,8.12
2022-10-09T04:20:00.671Z,8.11
2022-10-09T04:22:00.679Z,8.18
2022-10-09T04:24:00.687Z,8.2
2022-10-09T04:26:00.639Z,7.92
2022-10-09T04:28:00.636Z,8.22
2022-10-09T04:30:00.670Z,8.18
2022-10-09T04:32:27.576Z,8.16
2022-10-09T04:34:27.545Z,8.14
2022-10-09T04:36:27.587Z,8.16
2022-10-09T04:38:27.559Z,8.22
2022-10-09T04:40:27.564Z,8.25
2022-10-09T04:42:27.541Z,8.25
2022-10-09T04:44:27.665Z,8.3
2022-10-09T04:46:27.598Z,8.21
2022-10-09T04:48:15.989Z,8.22
2022-10-09T04:50:15.959Z,8.31
2022-10-09T04:52:15.941Z,8.24
2022-10-09T04:54:15.966Z,8.36
2022-10-09T04:56:15.949Z,8.44
2022-10-09T04:58:15.992Z,8.53
2022-10-09T05:00:15.925Z,8.56
2022-10-09T05:02:52.802Z,8.68
2022-10-09T05:04:52.857Z,8.62
2022-10-09T05:06:52.815Z,8.66
2022-10-09T05:08:52.858Z,8.69
2022-10-09T05:10:52.824Z,8.64
2022-10-09T05:12:52.828Z,8.76
2022-10-09T05:14:52.804Z,8.82
2022-10-09T05:18:13.324Z,8.94
2022-10-09T05:20:13.363Z,8.86
2022-10-09T05:22:13.303Z,9.1
2022-10-09T05:24:13.360Z,9.58
2022-10-09T05:26:13.328Z,9.51
2022-10-09T05:28:13.354Z,10.61
2022-10-09T05:30:13.339Z,12.03
2022-10-09T05:33:02.433Z,11.37
2022-10-09T05:35:02.388Z,10.92
2022-10-09T05:37:02.404Z,10.68
2022-10-09T05:39:02.416Z,10.64
2022-10-09T05:41:02.387Z,10.67
2022-10-09T05:43:02.448Z,10.73
2022-10-09T05:45:02.402Z,10.83
2022-10-09T05:47:02.367Z,10.82
2022-10-09T05:48:42.939Z,10.77
2022-10-09T05:50:42.945Z,10.7
2022-10-09T05:52:42.909Z,10.62
2022-10-09T05:54:42.947Z,10.51
2022-10-09T05:56:42.914Z,10.74
2022-10-09T05:58:42.951Z,10.73
2022-10-09T06:00:42.917Z,10.76
2022-10-09T06:04:06.282Z,10.45
2022-10-09T06:06:06.323Z,10.24
2022-10-09T06:08:06.267Z,10.51
2022-10-09T06:10:06.304Z,10.55
2022-10-09T06:12:06.292Z,10.52
2022-10-09T06:14:06.276Z,10.62
2022-10-09T06:16:06.243Z,10.89
2022-10-09T06:19:18.158Z,11.09
2022-10-09T06:21:18.169Z,11.38
2022-10-09T06:23:18.165Z,11.44
2022-10-09T06:25:18.173Z,11.11
2022-10-09T06:27:18.158Z,11.01
2022-10-09T06:29:18.180Z,10.86
2022-10-09T06:31:18.220Z,10.77
2022-10-09T06:34:27.670Z,10.66
2022-10-09T06:36:27.619Z,10.69
2022-10-09T06:38:27.593Z,10.57
2022-10-09T06:40:28.067Z,10.61
2022-10-09T06:42:27.574Z,10.78
2022-10-09T06:44:27.642Z,10.94
2022-10-09T06:46:27.633Z,10.83
2022-10-09T06:49:30.162Z,10.52
2022-10-09T06:51:30.124Z,10.58
2022-10-09T06:53:30.121Z,10.92
2022-10-09T06:55:30.119Z,11.26
2022-10-09T06:57:30.157Z,11.38
2022-10-09T06:59:30.132Z,11.46
2022-10-09T07:01:30.188Z,11.15
2022-10-09T07:04:15.511Z,11.3
2022-10-09T07:06:15.529Z,11.52
2022-10-09T07:08:15.549Z,12.05
2022-10-09T07:10:15.489Z,12.11
2022-10-09T07:12:15.525Z,12.14
2022-10-09T07:14:15.492Z,12.24
2022-10-09T07:16:15.578Z,11.94
2022-10-09T07:19:17.369Z,12.6
2022-10-09T07:21:17.177Z,12.39
2022-10-09T07:23:17.243Z,12.19
2022-10-09T07:25:17.187Z,12.73
2022-10-09T07:27:17.172Z,12.85
2022-10-09T07:29:17.179Z,13.01
2022-10-09T07:31:17.195Z,12.81
2022-10-09T07:33:17.433Z,13.42
2022-10-09T07:34:23.045Z,13.69
2022-10-09T07:36:23.023Z,14.03
2022-10-09T07:38:23.066Z,14.38
2022-10-09T07:40:23.045Z,14.34
2022-10-09T07:42:23.017Z,14.02
2022-10-09T07:44:23.037Z,14.1
2022-10-09T07:46:23.095Z,14.06
2022-10-09T07:48:23.073Z,13.96
2022-10-09T07:49:30.591Z,14.21
2022-10-09T07:51:30.582Z,14.83
2022-10-09T07:53:35.117Z,15.16
2022-10-09T07:55:30.565Z,15.38
2022-10-09T07:57:30.566Z,15.74
2022-10-09T07:59:30.602Z,16.19
2022-10-09T08:01:30.689Z,16.56
2022-10-09T08:03:30.594Z,16.31
2022-10-09T08:05:06.640Z,16.15
2022-10-09T08:07:06.593Z,16.04
2022-10-09T08:09:06.629Z,16.16
2022-10-09T08:11:06.640Z,15.84
2022-10-09T08:13:06.589Z,16.25
2022-10-09T08:15:06.644Z,16.33
2022-10-09T08:17:06.659Z,16.43
2022-10-09T08:20:35.369Z,16.89
2022-10-09T08:22:35.328Z,16.82
2022-10-09T08:24:35.316Z,16.87
2022-10-09T08:26:35.348Z,16.77
2022-10-09T08:28:35.429Z,16.97
2022-10-09T08:30:35.319Z,16.89
2022-10-09T08:32:35.324Z,16.85
2022-10-09T08:35:36.295Z,16.75
2022-10-09T08:37:36.256Z,16.83
2022-10-09T08:39:36.231Z,16.99
2022-10-09T08:41:36.243Z,17.26
2022-10-09T08:43:36.259Z,17.93
2022-10-09T08:45:36.318Z,18.4
2022-10-09T08:47:36.430Z,18.69
2022-10-09T08:50:18.193Z,18.87
2022-10-09T08:52:18.216Z,19.22
2022-10-09T08:54:18.216Z,18.67
2022-10-09T08:56:18.189Z,19.16
2022-10-09T08:58:18.202Z,19.41
2022-10-09T09:00:18.181Z,19.61
2022-10-09T09:02:18.213Z,19.6
2022-10-09T09:05:52.608Z,18.44
2022-10-09T09:07:52.543Z,18.23
2022-10-09T09:09:52.595Z,18.11
2022-10-09T09:11:52.584Z,18.98
2022-10-09T09:13:52.577Z,19.47
2022-10-09T09:15:52.601Z,19.75
2022-10-09T09:17:52.541Z,19.68
2022-10-09T09:21:13.852Z,20.21
2022-10-09T09:23:13.879Z,19.69
2022-10-09T09:25:13.946Z,20.12
2022-10-09T09:27:13.884Z,20.57
2022-10-09T09:29:13.820Z,20.4
2022-10-09T09:31:13.913Z,20.78
2022-10-09T09:33:13.824Z,20.77
2022-10-09T09:36:29.569Z,20.52
2022-10-09T09:38:29.594Z,20.51
2022-10-09T09:40:38.188Z,20.6
2022-10-09T09:42:29.595Z,20.65
2022-10-09T09:44:29.581Z,20.99
2022-10-09T09:46:29.628Z,21.16
2022-10-09T09:48:29.558Z,21.23
2022-10-09T09:51:27.841Z,21.7
2022-10-09T09:53:17.313Z,21.49
2022-10-09T09:55:17.269Z,21.33
2022-10-09T09:57:21.760Z,21.28
2022-10-09T09:59:17.293Z,21.05
2022-10-09T10:01:17.283Z,20.94
2022-10-09T10:03:17.302Z,21.31
2022-10-09T10:06:17.908Z,21.59
2022-10-09T10:08:17.916Z,21.42
2022-10-09T10:10:22.628Z,21.05
2022-10-09T10:12:17.904Z,21.39
2022-10-09T10:14:17.978Z,21.4
2022-10-09T10:16:17.939Z,21.37
2022-10-09T10:18:17.893Z,21.49
2022-10-09T10:21:04.168Z,21.81
2022-10-09T10:23:04.191Z,21.9
2022-10-09T10:25:04.181Z,21.35
2022-10-09T10:27:04.168Z,21.65
2022-10-09T10:29:04.169Z,21.27
2022-10-09T10:31:04.222Z,21.56
2022-10-09T10:33:04.153Z,21.85
2022-10-09T10:35:04.208Z,21.77
2022-10-09T10:36:29.495Z,22
2022-10-09T10:38:29.543Z,22
2022-10-09T10:40:29.494Z,21.72
2022-10-09T10:42:29.499Z,21.87
2022-10-09T10:44:29.555Z,22.1
2022-10-09T10:46:29.551Z,21.98
2022-10-09T10:48:29.528Z,22.34
2022-10-09T10:52:07.118Z,22.47
2022-10-09T10:54:08.182Z,22.47
2022-10-09T10:56:07.054Z,22.44
2022-10-09T10:58:07.071Z,22.55
2022-10-09T11:00:07.182Z,22.47
2022-10-09T11:02:07.108Z,22.65
2022-10-09T11:04:07.054Z,22.41
2022-10-09T11:06:39.138Z,22.58
2022-10-09T11:08:39.138Z,22.67
2022-10-09T11:10:39.219Z,22.16
2022-10-09T11:12:49.102Z,22.2
2022-10-09T11:14:39.160Z,22.48
2022-10-09T11:16:39.201Z,22.66
2022-10-09T11:18:39.149Z,22.81
2022-10-09T11:20:39.172Z,22.74
2022-10-09T11:21:57.932Z,22.31
2022-10-09T11:23:57.944Z,22.57
2022-10-09T11:25:57.950Z,22.85
2022-10-09T11:27:57.936Z,22.26
2022-10-09T11:29:57.943Z,22.39
2022-10-09T11:31:58.001Z,22.61
2022-10-09T11:33:57.971Z,22.75
2022-10-09T11:37:18.353Z,22.83
2022-10-09T11:39:18.326Z,22.68
2022-10-09T11:41:18.331Z,22.71
2022-10-09T11:43:18.283Z,22.79
2022-10-09T11:45:18.304Z,22.6
2022-10-09T11:47:18.347Z,22.31
2022-10-09T11:49:18.300Z,22.38
2022-10-09T11:53:02.295Z,22.73
2022-10-09T11:55:02.286Z,22.64
2022-10-09T11:57:05.250Z,22.58
2022-10-09T11:59:02.296Z,22.95
2022-10-09T12:01:02.393Z,22.9
2022-10-09T12:03:02.330Z,23.04
2022-10-09T12:05:02.393Z,23.11
2022-10-09T12:07:36.859Z,23.07
2022-10-09T12:09:36.838Z,22.43
2022-10-09T12:11:36.839Z,22.43
2022-10-09T12:13:36.843Z,22.1
2022-10-09T12:15:36.823Z,22.47
2022-10-09T12:17:36.891Z,22.46
2022-10-09T12:19:36.831Z,22.41
2022-10-09T12:22:31.696Z,22.44
2022-10-09T12:24:31.751Z,22.58
2022-10-09T12:26:31.713Z,22.61
2022-10-09T12:28:31.770Z,22.82
2022-10-09T12:30:31.796Z,22.67
2022-10-09T12:32:31.692Z,22.83
2022-10-09T12:34:31.730Z,22.64
2022-10-09T12:36:31.668Z,22.66
2022-10-09T12:38:03.145Z,22.59
2022-10-09T12:40:03.113Z,22.5
2022-10-09T12:42:03.113Z,22.6
2022-10-09T12:44:03.120Z,22.76
2022-10-09T12:46:03.221Z,22.84
2022-10-09T12:48:03.097Z,22.74
2022-10-09T12:50:03.105Z,22.49
2022-10-09T12:53:14.422Z,22.92
2022-10-09T12:55:14.438Z,23.03
2022-10-09T12:57:14.371Z,22.42
2022-10-09T12:59:14.383Z,22.67
2022-10-09T13:01:14.504Z,22.56
2022-10-09T13:03:14.376Z,22.38
2022-10-09T13:05:14.396Z,22.69
2022-10-09T13:07:54.735Z,22.74
2022-10-09T13:09:54.762Z,22.74
2022-10-09T13:11:54.725Z,22.82
2022-10-09T13:13:54.768Z,22.82
2022-10-09T13:15:54.707Z,22.83
2022-10-09T13:17:54.798Z,22.68
2022-10-09T13:19:54.738Z,22.67
2022-10-09T13:21:54.768Z,22.7
2022-10-09T13:23:55.382Z,22.66
2022-10-09T13:25:56.495Z,22.44
2022-10-09T13:27:55.313Z,22.56
2022-10-09T13:29:55.248Z,22.64
2022-10-09T13:31:55.240Z,22.69
2022-10-09T13:33:55.286Z,22.73
2022-10-09T13:35:55.230Z,22.58
2022-10-09T13:39:10.287Z,22.35
2022-10-09T13:41:10.332Z,22.38
2022-10-09T13:43:10.289Z,22.14
2022-10-09T13:45:10.308Z,22.14
2022-10-09T13:47:10.440Z,22.24
2022-10-09T13:49:10.338Z,22.1
2022-10-09T13:51:10.331Z,22.31
2022-10-09T13:53:56.646Z,22.12
2022-10-09T13:55:59.938Z,22.32
2022-10-09T13:57:56.685Z,22.17
2022-10-09T13:59:56.694Z,22.15
2022-10-09T14:01:56.714Z,22.1
2022-10-09T14:03:56.654Z,21.97
2022-10-09T14:05:56.680Z,21.95
2022-10-09T14:08:53.927Z,21.77
2022-10-09T14:10:53.916Z,21.62
2022-10-09T14:12:53.897Z,21.9
2022-10-09T14:14:53.924Z,21.86
2022-10-09T14:16:53.874Z,21.77
2022-10-09T14:18:53.917Z,21.48
2022-10-09T14:20:53.906Z,21.45
2022-10-09T14:23:43.481Z,21.66
2022-10-09T14:25:43.532Z,21.22
2022-10-09T14:27:44.039Z,21.22
2022-10-09T14:29:43.573Z,21.27
2022-10-09T14:31:43.540Z,21.37
2022-10-09T14:33:43.544Z,21.37
2022-10-09T14:35:43.569Z,21.21
2022-10-09T14:37:43.500Z,20.98
2022-10-09T14:39:20.095Z,21
2022-10-09T14:41:20.137Z,20.91
2022-10-09T14:43:20.088Z,20.83
2022-10-09T14:45:20.130Z,20.8
2022-10-09T14:47:20.157Z,20.76
2022-10-09T14:49:20.115Z,20.84
2022-10-09T14:51:20.228Z,20.99
2022-10-09T14:54:39.318Z,20.83
2022-10-09T14:56:39.247Z,20.73
2022-10-09T14:58:39.254Z,20.57
2022-10-09T15:00:39.273Z,20.49
2022-10-09T15:02:39.314Z,20.43
2022-10-09T15:04:39.246Z,20.43
2022-10-09T15:06:39.238Z,20.26
2022-10-09T15:09:23.722Z,20.24
2022-10-09T15:11:24.046Z,20.04
2022-10-09T15:13:23.709Z,20.2
2022-10-09T15:15:23.724Z,20.09
2022-10-09T15:17:23.786Z,19.97
2022-10-09T15:19:23.745Z,20.11
2022-10-09T15:21:23.777Z,20.03
2022-10-09T15:25:05.298Z,19.75
2022-10-09T15:27:05.286Z,19.66
2022-10-09T15:29:05.296Z,19.58
2022-10-09T15:31:05.299Z,19.55
2022-10-09T15:33:05.319Z,19.49
2022-10-09T15:35:05.331Z,19.41
2022-10-09T15:37:05.321Z,19.36
2022-10-09T15:40:13.915Z,19.27
2022-10-09T15:42:13.947Z,19.26
2022-10-09T15:44:13.911Z,19.1
2022-10-09T15:46:13.947Z,18.94
2022-10-09T15:48:13.921Z,18.84
2022-10-09T15:50:14.012Z,18.76
2022-10-09T15:52:13.915Z,18.68
2022-10-09T15:55:18.531Z,18.46
2022-10-09T15:57:18.482Z,18.36
2022-10-09T15:59:18.468Z,18.31
2022-10-09T16:01:18.556Z,18.19
2022-10-09T16:03:18.470Z,18.05
2022-10-09T16:05:18.540Z,17.99
2022-10-09T16:07:18.455Z,17.94
2022-10-09T16:10:22.237Z,17.77
2022-10-09T16:12:22.257Z,17.55
2022-10-09T16:14:22.214Z,17.55
2022-10-09T16:16:22.237Z,17.57
2022-10-09T16:18:22.220Z,17.52
2022-10-09T16:20:22.311Z,17.47
2022-10-09T16:22:22.458Z,17.44
2022-10-09T16:25:20.313Z,17.21
2022-10-09T16:27:20.256Z,17.18
2022-10-09T16:29:20.253Z,17.11
2022-10-09T16:31:20.308Z,17.24
2022-10-09T16:33:21.079Z,17.23
2022-10-09T16:35:20.288Z,17.13
2022-10-09T16:37:20.275Z,17.09
2022-10-09T16:41:01.673Z,16.94
2022-10-09T16:42:54.326Z,16.91
2022-10-09T16:44:54.375Z,16.95
2022-10-09T16:46:55.072Z,16.96
2022-10-09T16:48:54.367Z,16.88
2022-10-09T16:50:54.343Z,16.85
2022-10-09T16:52:56.711Z,16.78
2022-10-09T16:55:50.701Z,16.79
2022-10-09T16:57:50.995Z,16.66
2022-10-09T16:59:50.670Z,16.53
2022-10-09T17:01:50.712Z,16.54
2022-10-09T17:03:50.656Z,16.51
2022-10-09T17:05:50.653Z,16.55
2022-10-09T17:07:51.000Z,16.56
2022-10-09T17:10:41.391Z,16.44
2022-10-09T17:12:41.329Z,16.26
2022-10-09T17:14:41.393Z,16.26
2022-10-09T17:16:41.324Z,16.28
2022-10-09T17:18:41.323Z,16.24
2022-10-09T17:20:41.368Z,16.15
2022-10-09T17:22:41.329Z,16.17
2022-10-09T17:25:44.328Z,16.17
2022-10-09T17:27:44.292Z,16.09
2022-10-09T17:29:44.281Z,16.06
2022-10-09T17:31:44.313Z,16.04
2022-10-09T17:33:44.288Z,15.93
2022-10-09T17:35:44.286Z,15.88
2022-10-09T17:37:44.329Z,15.83
2022-10-09T17:39:47.516Z,15.74
2022-10-09T17:41:08.653Z,15.82
2022-10-09T17:43:08.583Z,15.85
2022-10-09T17:45:08.839Z,15.84
2022-10-09T17:47:08.636Z,15.77
2022-10-09T17:49:08.570Z,15.78
2022-10-09T17:51:08.598Z,15.7
2022-10-09T17:53:08.565Z,15.61
2022-10-09T17:56:58.575Z,15.6
2022-10-09T17:58:58.504Z,15.64
2022-10-09T18:00:58.544Z,15.68
2022-10-09T18:02:58.499Z,15.64
2022-10-09T18:04:58.505Z,15.61
2022-10-09T18:06:58.509Z,15.49
2022-10-09T18:08:58.484Z,15.43
2022-10-09T18:12:10.191Z,15.47
2022-10-09T18:14:10.123Z,15.49
2022-10-09T18:16:10.107Z,15.45
2022-10-09T18:18:10.115Z,15.38
2022-10-09T18:20:10.114Z,15.3
2022-10-09T18:22:10.163Z,15.27
2022-10-09T18:24:10.134Z,15.21
2022-10-09T18:26:35.057Z,15.26
2022-10-09T18:28:35.135Z,15.22
2022-10-09T18:30:35.077Z,15.19
2022-10-09T18:32:35.064Z,15.2
2022-10-09T18:34:38.879Z,15.16
2022-10-09T18:36:35.124Z,15.16
2022-10-09T18:38:35.110Z,15.11
2022-10-09T18:42:21.976Z,15.02
2022-10-09T18:44:22.023Z,15.07
2022-10-09T18:46:21.984Z,15.11
2022-10-09T18:48:21.975Z,15.02
2022-10-09T18:50:21.979Z,14.96
2022-10-09T18:52:21.962Z,14.92
2022-10-09T18:54:22.005Z,14.98
2022-10-09T18:56:51.391Z,14.83
2022-10-09T18:58:51.388Z,14.85
2022-10-09T19:00:51.482Z,14.83
2022-10-09T19:02:51.387Z,14.74
2022-10-09T19:04:51.426Z,14.72
2022-10-09T19:06:51.411Z,14.77
2022-10-09T19:08:51.392Z,14.62
2022-10-09T19:10:51.430Z,14.76
2022-10-09T19:12:04.711Z,14.72
2022-10-09T19:14:04.692Z,14.76
2022-10-09T19:16:04.730Z,14.69
2022-10-09T19:18:04.683Z,14.64
2022-10-09T19:20:04.685Z,14.65
2022-10-09T19:22:04.676Z,14.59
2022-10-09T19:24:04.677Z,14.59
2022-10-09T19:27:26.753Z,14.6
2022-10-09T19:29:26.255Z,14.61
2022-10-09T19:31:26.308Z,14.48
2022-10-09T19:33:26.232Z,14.52
2022-10-09T19:35:26.233Z,14.59
2022-10-09T19:37:28.853Z,14.49
2022-10-09T19:39:26.249Z,14.47
2022-10-09T19:42:52.659Z,14.46
2022-10-09T19:44:52.654Z,14.44
2022-10-09T19:46:52.712Z,14.45
2022-10-09T19:48:52.656Z,14.54
2022-10-09T19:50:52.647Z,14.48
2022-10-09T19:52:52.652Z,14.42
2022-10-09T19:54:52.643Z,14.38
2022-10-09T19:57:36.821Z,14.36
2022-10-09T19:59:36.822Z,14.32
2022-10-09T20:01:36.944Z,14.33
2022-10-09T20:03:36.840Z,14.32
2022-10-09T20:05:36.876Z,14.36
2022-10-09T20:07:36.823Z,14.4
2022-10-09T20:09:36.810Z,14.33
2022-10-09T20:12:40.859Z,14.25
2022-10-09T20:14:40.876Z,14.32
2022-10-09T20:16:40.893Z,14.29
2022-10-09T20:18:40.872Z,14.23
2022-10-09T20:20:40.881Z,14.2
2022-10-09T20:22:40.834Z,14.09
2022-10-09T20:24:40.856Z,14
2022-10-09T20:26:43.085Z,14.02
2022-10-09T20:28:23.282Z,14.12
2022-10-09T20:30:23.245Z,14.11
2022-10-09T20:32:23.217Z,14.12
2022-10-09T20:34:23.284Z,14.03
2022-10-09T20:36:23.217Z,14.09
2022-10-09T20:38:25.665Z,14.11
2022-10-09T20:40:23.251Z,14.08
2022-10-09T20:43:30.971Z,14.12
2022-10-09T20:45:30.936Z,14.15
2022-10-09T20:47:30.971Z,14.11
2022-10-09T20:49:30.949Z,14.06
2022-10-09T20:51:30.932Z,13.96
2022-10-09T20:53:30.925Z,13.88
2022-10-09T20:55:30.952Z,13.93
2022-10-09T20:59:01.589Z,13.9
2022-10-09T21:01:01.639Z,14.02
2022-10-09T21:03:01.579Z,14.02
2022-10-09T21:05:01.617Z,13.99
2022-10-09T21:07:01.582Z,13.95
2022-10-09T21:09:02.590Z,13.98
2022-10-09T21:11:01.580Z,13.84
2022-10-09T21:13:18.210Z,13.9
2022-10-09T21:15:18.197Z,13.83
2022-10-09T21:17:18.217Z,13.79
2022-10-09T21:19:18.216Z,13.7
2022-10-09T21:21:18.265Z,13.64
2022-10-09T21:23:18.250Z,13.68
2022-10-09T21:25:18.188Z,13.66
2022-10-09T21:27:18.180Z,13.59
2022-10-09T21:28:58.410Z,13.64
2022-10-09T21:30:54.227Z,13.69
2022-10-09T21:32:54.147Z,13.72
2022-10-09T21:34:54.154Z,13.66
2022-10-09T21:37:20.738Z,13.65
2022-10-09T21:38:54.135Z,13.57
2022-10-09T21:40:54.143Z,13.53
2022-10-09T21:43:56.083Z,13.51
2022-10-09T21:45:56.057Z,13.47
2022-10-09T21:47:56.089Z,13.47
2022-10-09T21:49:56.043Z,13.43
2022-10-09T21:51:56.066Z,13.46
2022-10-09T21:53:56.109Z,13.32
2022-10-09T21:55:56.088Z,13.34
2022-10-09T21:59:23.921Z,13.37
2022-10-09T22:01:23.946Z,13.34
2022-10-09T22:03:23.910Z,13.39
2022-10-09T22:05:23.868Z,13.42
2022-10-09T22:07:23.955Z,13.39
2022-10-09T22:09:23.879Z,13.33
2022-10-09T22:11:23.884Z,13.33
2022-10-09T22:14:18.522Z,13.25
2022-10-09T22:16:18.480Z,13.29
2022-10-09T22:18:18.502Z,13.29
2022-10-09T22:20:18.495Z,13.3
2022-10-09T22:22:18.477Z,13.37
2022-10-09T22:24:18.521Z,13.39
2022-10-09T22:26:18.522Z,13.36
2022-10-09T22:29:47.053Z,13.3
2022-10-09T22:31:47.042Z,13.34
2022-10-09T22:33:47.054Z,13.23
2022-10-09T22:35:47.000Z,13.22
2022-10-09T22:37:47.030Z,13.24
2022-10-09T22:39:47.031Z,13.24
2022-10-09T22:41:47.051Z,13.15
2022-10-09T22:44:59.009Z,13.11
2022-10-09T22:46:59.031Z,13.07
2022-10-09T22:48:59.162Z,13.09
2022-10-09T22:50:59.001Z,13.04
2022-10-09T22:52:59.023Z,13.04
2022-10-09T22:54:59.040Z,12.98
2022-10-09T22:56:59.048Z,12.94
2022-10-09T23:00:29.743Z,12.93
2022-10-09T23:02:29.754Z,12.88
2022-10-09T23:04:29.734Z,12.81
2022-10-09T23:06:29.734Z,12.83
2022-10-09T23:08:29.781Z,12.86
2022-10-09T23:10:29.752Z,12.82
2022-10-09T23:12:29.749Z,12.8
2022-10-09T23:14:56.536Z,12.72
2022-10-09T23:16:56.520Z,12.67
2022-10-09T23:18:57.894Z,12.79
2022-10-09T23:20:56.522Z,12.78
2022-10-09T23:22:56.565Z,12.75
2022-10-09T23:24:56.518Z,12.7
2022-10-09T23:26:56.688Z,12.71
2022-10-09T23:30:37.474Z,12.52
2022-10-09T23:32:37.511Z,12.61
2022-10-09T23:34:37.466Z,12.58
2022-10-09T23:36:37.511Z,12.64
2022-10-09T23:38:37.480Z,12.65
2022-10-09T23:40:37.466Z,12.58
2022-10-09T23:42:37.497Z,12.33
2022-10-09T23:44:59.025Z,12.48
2022-10-09T23:46:58.991Z,12.38
2022-10-09T23:48:58.993Z,12.3
2022-10-09T23:50:59.002Z,12.4
2022-10-09T23:52:59.019Z,12.48
2022-10-09T23:54:59.000Z,12.47
2022-10-09T23:56:59.017Z,12.4
2022-10-09T23:58:59.013Z,12.26
